sensor_id;sensor_type;location;lat;lon;timestamp;pressure;altitude;pressure_sealevel;temperature;humidity
4024;BME280;2026;51.002;13.668;2023-04-26T00:00:19;98848.13;;;6.02;77.24
4024;BME280;2026;51.002;13.668;2023-04-26T00:05:24;98852.34;;;6.03;77.69
4024;BME280;2026;51.002;13.668;2023-04-26T00:10:27;98849.25;;;5.93;79.54
4024;BME280;2026;51.002;13.668;2023-04-26T00:15:30;98852.72;;;6.00;78.87
4024;BME280;2026;51.002;13.668;2023-04-26T00:20:35;98851.56;;;5.81;79.31
4024;BME280;2026;51.002;13.668;2023-04-26T00:25:37;98852.72;;;5.78;78.77
4024;BME280;2026;51.002;13.668;2023-04-26T00:30:41;98849.38;;;5.85;78.03
4024;BME280;2026;51.002;13.668;2023-04-26T00:35:49;98858.03;;;5.70;78.58
4024;BME280;2026;51.002;13.668;2023-04-26T00:40:52;98862.38;;;5.48;79.05
4024;BME280;2026;51.002;13.668;2023-04-26T00:45:55;98866.56;;;5.64;78.88
4024;BME280;2026;51.002;13.668;2023-04-26T00:51:00;98868.88;;;5.74;78.16
4024;BME280;2026;51.002;13.668;2023-04-26T00:56:05;98878.69;;;5.57;79.17
4024;BME280;2026;51.002;13.668;2023-04-26T01:01:08;98867.81;;;5.68;77.94
4024;BME280;2026;51.002;13.668;2023-04-26T01:06:13;98865.88;;;5.55;79.11
4024;BME280;2026;51.002;13.668;2023-04-26T01:11:16;98884.28;;;5.38;79.71
4024;BME280;2026;51.002;13.668;2023-04-26T01:16:22;98878.81;;;5.33;79.67
4024;BME280;2026;51.002;13.668;2023-04-26T01:21:27;98885.28;;;5.37;80.12
4024;BME280;2026;51.002;13.668;2023-04-26T01:26:31;98882.06;;;5.35;79.19
4024;BME280;2026;51.002;13.668;2023-04-26T01:31:34;98890.41;;;5.31;79.45
4024;BME280;2026;51.002;13.668;2023-04-26T01:36:37;98882.25;;;5.19;80.00
4024;BME280;2026;51.002;13.668;2023-04-26T01:41:41;98891.56;;;5.13;80.26
4024;BME280;2026;51.002;13.668;2023-04-26T01:46:44;98892.63;;;4.74;82.42
4024;BME280;2026;51.002;13.668;2023-04-26T01:51:48;98888.34;;;4.81;82.32
4024;BME280;2026;51.002;13.668;2023-04-26T01:56:52;98890.16;;;4.80;82.25
4024;BME280;2026;51.002;13.668;2023-04-26T02:01:55;98900.38;;;4.97;81.79
4024;BME280;2026;51.002;13.668;2023-04-26T02:06:58;98902.44;;;5.02;81.94
4024;BME280;2026;51.002;13.668;2023-04-26T02:12:02;98902.44;;;5.02;81.93
4024;BME280;2026;51.002;13.668;2023-04-26T02:17:05;98903.00;;;4.74;82.94
4024;BME280;2026;51.002;13.668;2023-04-26T02:22:09;98906.56;;;4.96;82.53
4024;BME280;2026;51.002;13.668;2023-04-26T02:27:16;98893.53;;;4.66;82.79
4024;BME280;2026;51.002;13.668;2023-04-26T02:32:19;98895.31;;;4.65;84.08
4024;BME280;2026;51.002;13.668;2023-04-26T02:37:22;98890.22;;;4.72;83.45
4024;BME280;2026;51.002;13.668;2023-04-26T02:42:27;98897.41;;;4.85;83.27
4024;BME280;2026;51.002;13.668;2023-04-26T02:47:30;98893.16;;;4.69;83.23
4024;BME280;2026;51.002;13.668;2023-04-26T02:52:33;98889.31;;;4.80;83.92
4024;BME280;2026;51.002;13.668;2023-04-26T02:57:39;98898.25;;;4.62;83.55
4024;BME280;2026;51.002;13.668;2023-04-26T03:02:42;98898.03;;;4.72;83.95
4024;BME280;2026;51.002;13.668;2023-04-26T03:07:45;98908.94;;;4.67;84.53
4024;BME280;2026;51.002;13.668;2023-04-26T03:12:49;98902.47;;;4.63;84.97
4024;BME280;2026;51.002;13.668;2023-04-26T03:17:52;98908.03;;;4.75;83.96
4024;BME280;2026;51.002;13.668;2023-04-26T03:22:55;98911.00;;;4.87;82.79
4024;BME280;2026;51.002;13.668;2023-04-26T03:28:01;98910.38;;;4.85;82.54
4024;BME280;2026;51.002;13.668;2023-04-26T03:33:04;98915.84;;;4.75;82.83
4024;BME280;2026;51.002;13.668;2023-04-26T03:38:07;98917.91;;;4.80;82.56
4024;BME280;2026;51.002;13.668;2023-04-26T03:43:12;98919.44;;;4.51;83.28
4024;BME280;2026;51.002;13.668;2023-04-26T03:48:15;98922.16;;;4.57;82.40
4024;BME280;2026;51.002;13.668;2023-04-26T03:53:18;98927.44;;;4.64;81.76
4024;BME280;2026;51.002;13.668;2023-04-26T03:58:23;98937.03;;;4.64;81.36
4024;BME280;2026;51.002;13.668;2023-04-26T04:03:26;98936.81;;;4.50;82.41
4024;BME280;2026;51.002;13.668;2023-04-26T04:08:31;98935.78;;;4.60;81.03
4024;BME280;2026;51.002;13.668;2023-04-26T04:13:35;98931.72;;;4.57;81.72
4024;BME280;2026;51.002;13.668;2023-04-26T04:18:38;98940.03;;;4.52;81.38
4024;BME280;2026;51.002;13.668;2023-04-26T04:23:42;98935.88;;;4.66;80.56
4024;BME280;2026;51.002;13.668;2023-04-26T04:28:49;98945.09;;;5.22;78.06
4024;BME280;2026;51.002;13.668;2023-04-26T04:33:53;98938.88;;;6.49;74.35
4024;BME280;2026;51.002;13.668;2023-04-26T04:38:56;98947.44;;;7.70;69.08
4024;BME280;2026;51.002;13.668;2023-04-26T04:44:02;98947.59;;;7.62;66.22
4024;BME280;2026;51.002;13.668;2023-04-26T04:49:05;98954.13;;;7.86;66.34
4024;BME280;2026;51.002;13.668;2023-04-26T04:54:10;98962.06;;;7.65;66.70
4024;BME280;2026;51.002;13.668;2023-04-26T04:59:15;98966.94;;;7.81;66.07
4024;BME280;2026;51.002;13.668;2023-04-26T05:04:19;98960.47;;;8.46;64.38
4024;BME280;2026;51.002;13.668;2023-04-26T05:09:22;98965.09;;;8.51;62.16
4024;BME280;2026;51.002;13.668;2023-04-26T05:14:28;98975.75;;;8.56;64.07
4024;BME280;2026;51.002;13.668;2023-04-26T05:19:32;98984.63;;;7.86;66.08
4024;BME280;2026;51.002;13.668;2023-04-26T05:24:35;98967.22;;;8.07;65.88
4024;BME280;2026;51.002;13.668;2023-04-26T05:29:40;98976.34;;;8.85;65.24
4024;BME280;2026;51.002;13.668;2023-04-26T05:34:59;98982.38;;;8.92;62.93
4024;BME280;2026;51.002;13.668;2023-04-26T05:40:05;98983.50;;;9.57;61.93
4024;BME280;2026;51.002;13.668;2023-04-26T05:45:10;98999.84;;;9.26;61.23
4024;BME280;2026;51.002;13.668;2023-04-26T05:50:15;98998.59;;;9.42;61.15
4024;BME280;2026;51.002;13.668;2023-04-26T05:55:19;99004.88;;;9.27;63.48
4024;BME280;2026;51.002;13.668;2023-04-26T06:00:24;99006.31;;;9.96;60.83
4024;BME280;2026;51.002;13.668;2023-04-26T06:05:28;99005.09;;;9.19;63.77
4024;BME280;2026;51.002;13.668;2023-04-26T06:10:34;99002.06;;;8.54;62.75
4024;BME280;2026;51.002;13.668;2023-04-26T06:15:39;99008.84;;;7.31;65.74
4024;BME280;2026;51.002;13.668;2023-04-26T06:20:42;99015.53;;;7.82;67.52
4024;BME280;2026;51.002;13.668;2023-04-26T06:25:45;99006.50;;;9.01;64.04
4024;BME280;2026;51.002;13.668;2023-04-26T06:30:49;99019.34;;;8.49;63.12
4024;BME280;2026;51.002;13.668;2023-04-26T06:35:52;99019.97;;;7.47;65.49
4024;BME280;2026;51.002;13.668;2023-04-26T06:40:55;99013.81;;;7.54;65.06
4024;BME280;2026;51.002;13.668;2023-04-26T06:46:00;99021.81;;;7.95;63.81
4024;BME280;2026;51.002;13.668;2023-04-26T06:51:06;99022.66;;;7.60;65.97
4024;BME280;2026;51.002;13.668;2023-04-26T06:56:09;99027.97;;;8.36;63.21
4024;BME280;2026;51.002;13.668;2023-04-26T07:01:13;99033.16;;;8.16;62.71
4024;BME280;2026;51.002;13.668;2023-04-26T07:06:16;99032.00;;;6.69;67.24
4024;BME280;2026;51.002;13.668;2023-04-26T07:11:19;99045.53;;;7.58;64.66
4024;BME280;2026;51.002;13.668;2023-04-26T07:16:27;99030.84;;;9.08;61.86
4024;BME280;2026;51.002;13.668;2023-04-26T07:21:31;99039.81;;;8.38;59.77
4024;BME280;2026;51.002;13.668;2023-04-26T07:26:34;99040.47;;;8.61;64.67
4024;BME280;2026;51.002;13.668;2023-04-26T07:31:39;99030.59;;;9.50;61.59
4024;BME280;2026;51.002;13.668;2023-04-26T07:36:42;99021.69;;;10.56;53.97
4024;BME280;2026;51.002;13.668;2023-04-26T07:41:45;99039.25;;;8.57;57.74
4024;BME280;2026;51.002;13.668;2023-04-26T07:46:49;99043.31;;;9.27;57.20
4024;BME280;2026;51.002;13.668;2023-04-26T07:51:52;99034.47;;;8.67;55.77
4024;BME280;2026;51.002;13.668;2023-04-26T07:56:57;99029.13;;;9.75;57.32
4024;BME280;2026;51.002;13.668;2023-04-26T08:02:01;99043.00;;;8.20;55.27
4024;BME280;2026;51.002;13.668;2023-04-26T08:07:04;99035.44;;;8.52;59.31
4024;BME280;2026;51.002;13.668;2023-04-26T08:12:08;99040.28;;;8.76;57.41
4024;BME280;2026;51.002;13.668;2023-04-26T08:17:12;99038.41;;;10.30;55.18
4024;BME280;2026;51.002;13.668;2023-04-26T08:22:15;99035.16;;;9.82;51.75
4024;BME280;2026;51.002;13.668;2023-04-26T08:27:18;99049.94;;;8.62;51.93
4024;BME280;2026;51.002;13.668;2023-04-26T08:32:23;99053.72;;;7.90;57.93
4024;BME280;2026;51.002;13.668;2023-04-26T08:37:26;99045.50;;;8.55;56.26
4024;BME280;2026;51.002;13.668;2023-04-26T08:42:30;99056.00;;;7.65;57.39
4024;BME280;2026;51.002;13.668;2023-04-26T08:47:39;99047.75;;;8.99;56.06
4024;BME280;2026;51.002;13.668;2023-04-26T08:52:46;99048.34;;;9.55;50.65
4024;BME280;2026;51.002;13.668;2023-04-26T08:57:50;99036.13;;;10.72;49.58
4024;BME280;2026;51.002;13.668;2023-04-26T09:02:54;99038.88;;;11.73;47.78
4024;BME280;2026;51.002;13.668;2023-04-26T09:08:00;99045.00;;;10.71;49.01
4024;BME280;2026;51.002;13.668;2023-04-26T09:13:04;99043.66;;;10.23;49.16
4024;BME280;2026;51.002;13.668;2023-04-26T09:18:18;99046.75;;;10.45;49.35
4024;BME280;2026;51.002;13.668;2023-04-26T09:23:22;99044.91;;;11.10;46.64
4024;BME280;2026;51.002;13.668;2023-04-26T09:28:25;99054.88;;;10.37;48.93
4024;BME280;2026;51.002;13.668;2023-04-26T09:33:29;99055.75;;;10.24;50.19
4024;BME280;2026;51.002;13.668;2023-04-26T09:38:41;99047.13;;;10.49;49.06
4024;BME280;2026;51.002;13.668;2023-04-26T09:43:44;99060.06;;;10.05;45.91
4024;BME280;2026;51.002;13.668;2023-04-26T09:48:59;99043.75;;;11.25;47.09
4024;BME280;2026;51.002;13.668;2023-04-26T09:54:02;99054.47;;;10.72;46.69
4024;BME280;2026;51.002;13.668;2023-04-26T09:59:05;99076.72;;;8.91;52.94
4024;BME280;2026;51.002;13.668;2023-04-26T10:04:10;99065.84;;;9.61;50.82
4024;BME280;2026;51.002;13.668;2023-04-26T10:09:14;99049.75;;;11.07;49.50
4024;BME280;2026;51.002;13.668;2023-04-26T10:14:17;99038.47;;;11.32;46.76
4024;BME280;2026;51.002;13.668;2023-04-26T10:19:21;99051.75;;;10.86;47.82
4024;BME280;2026;51.002;13.668;2023-04-26T10:24:24;99050.03;;;9.88;47.88
4024;BME280;2026;51.002;13.668;2023-04-26T10:35:14;99057.09;;;10.72;47.36
4024;BME280;2026;51.002;13.668;2023-04-26T10:40:22;99050.38;;;11.09;47.68
4024;BME280;2026;51.002;13.668;2023-04-26T10:45:26;99045.06;;;11.97;47.33
4024;BME280;2026;51.002;13.668;2023-04-26T10:50:32;99044.50;;;11.58;45.47
4024;BME280;2026;51.002;13.668;2023-04-26T10:55:38;99029.78;;;10.23;46.81
4024;BME280;2026;51.002;13.668;2023-04-26T11:01:02;99035.31;;;10.97;45.73
4024;BME280;2026;51.002;13.668;2023-04-26T11:06:08;99044.00;;;9.95;46.60
4024;BME280;2026;51.002;13.668;2023-04-26T11:11:15;99047.06;;;10.63;45.59
4024;BME280;2026;51.002;13.668;2023-04-26T11:16:20;99053.28;;;11.00;44.56
4024;BME280;2026;51.002;13.668;2023-04-26T11:21:28;99043.72;;;10.81;42.35
4024;BME280;2026;51.002;13.668;2023-04-26T11:26:33;99047.84;;;11.21;42.57
4024;BME280;2026;51.002;13.668;2023-04-26T11:31:37;99041.31;;;10.08;46.29
4024;BME280;2026;51.002;13.668;2023-04-26T11:36:43;99045.28;;;12.14;43.28
4024;BME280;2026;51.002;13.668;2023-04-26T11:41:47;99039.81;;;11.60;42.10
4024;BME280;2026;51.002;13.668;2023-04-26T11:46:50;99048.16;;;11.31;42.81
4024;BME280;2026;51.002;13.668;2023-04-26T11:51:55;99041.50;;;8.87;46.72
4024;BME280;2026;51.002;13.668;2023-04-26T11:56:58;99055.94;;;9.70;46.46
4024;BME280;2026;51.002;13.668;2023-04-26T12:02:04;99055.59;;;9.06;48.37
4024;BME280;2026;51.002;13.668;2023-04-26T12:07:09;99059.22;;;9.52;49.93
4024;BME280;2026;51.002;13.668;2023-04-26T12:12:12;99066.03;;;9.13;47.25
4024;BME280;2026;51.002;13.668;2023-04-26T12:17:15;99058.88;;;9.94;47.54
4024;BME280;2026;51.002;13.668;2023-04-26T12:22:20;99067.78;;;10.71;44.44
4024;BME280;2026;51.002;13.668;2023-04-26T12:27:23;99064.41;;;10.25;45.32
4024;BME280;2026;51.002;13.668;2023-04-26T12:32:27;99055.19;;;10.15;45.79
4024;BME280;2026;51.002;13.668;2023-04-26T12:37:31;99058.72;;;9.82;47.37
4024;BME280;2026;51.002;13.668;2023-04-26T12:42:34;99056.22;;;10.14;45.26
4024;BME280;2026;51.002;13.668;2023-04-26T12:47:37;99062.44;;;10.13;47.71
4024;BME280;2026;51.002;13.668;2023-04-26T12:52:42;99061.81;;;10.18;46.62
4024;BME280;2026;51.002;13.668;2023-04-26T12:57:46;99051.59;;;10.49;47.29
4024;BME280;2026;51.002;13.668;2023-04-26T13:02:49;99056.56;;;9.66;46.67
4024;BME280;2026;51.002;13.668;2023-04-26T13:07:54;99063.22;;;9.34;45.55
4024;BME280;2026;51.002;13.668;2023-04-26T13:12:57;99052.03;;;9.93;47.63
4024;BME280;2026;51.002;13.668;2023-04-26T13:17:59;99048.59;;;10.77;46.65
4024;BME280;2026;51.002;13.668;2023-04-26T13:23:04;99048.38;;;10.46;44.56
4024;BME280;2026;51.002;13.668;2023-04-26T13:28:07;99055.28;;;10.98;46.62
4024;BME280;2026;51.002;13.668;2023-04-26T13:33:10;99052.44;;;11.25;44.08
4024;BME280;2026;51.002;13.668;2023-04-26T13:38:15;99055.53;;;11.41;44.83
4024;BME280;2026;51.002;13.668;2023-04-26T13:43:18;99059.19;;;9.59;45.48
4024;BME280;2026;51.002;13.668;2023-04-26T13:48:22;99055.63;;;10.51;44.56
4024;BME280;2026;51.002;13.668;2023-04-26T13:53:29;99061.75;;;10.31;43.50
4024;BME280;2026;51.002;13.668;2023-04-26T13:58:32;99053.38;;;10.87;44.00
4024;BME280;2026;51.002;13.668;2023-04-26T14:03:35;99061.84;;;10.11;43.80
4024;BME280;2026;51.002;13.668;2023-04-26T14:08:40;99067.88;;;10.18;44.87
4024;BME280;2026;51.002;13.668;2023-04-26T14:13:42;99063.63;;;9.31;45.25
4024;BME280;2026;51.002;13.668;2023-04-26T14:18:46;99073.25;;;9.78;45.94
4024;BME280;2026;51.002;13.668;2023-04-26T14:23:50;99068.09;;;9.17;46.58
4024;BME280;2026;51.002;13.668;2023-04-26T14:28:53;99070.84;;;9.43;46.61
4024;BME280;2026;51.002;13.668;2023-04-26T14:33:57;99073.16;;;10.05;45.59
4024;BME280;2026;51.002;13.668;2023-04-26T14:39:02;99073.28;;;9.44;46.38
4024;BME280;2026;51.002;13.668;2023-04-26T14:44:05;99077.91;;;9.62;46.51
4024;BME280;2026;51.002;13.668;2023-04-26T14:49:08;99073.88;;;10.26;46.95
4024;BME280;2026;51.002;13.668;2023-04-26T14:54:12;99078.53;;;9.24;46.96
4024;BME280;2026;51.002;13.668;2023-04-26T14:59:16;99076.44;;;9.87;47.14
4024;BME280;2026;51.002;13.668;2023-04-26T15:04:19;99077.72;;;8.96;47.28
4024;BME280;2026;51.002;13.668;2023-04-26T15:09:23;99082.97;;;8.90;48.13
4024;BME280;2026;51.002;13.668;2023-04-26T15:14:29;99078.91;;;9.34;48.11
4024;BME280;2026;51.002;13.668;2023-04-26T15:19:32;99068.81;;;9.85;47.81
4024;BME280;2026;51.002;13.668;2023-04-26T15:24:37;99075.59;;;10.00;47.38
4024;BME280;2026;51.002;13.668;2023-04-26T15:29:40;99078.00;;;10.08;47.14
4024;BME280;2026;51.002;13.668;2023-04-26T15:34:43;99075.66;;;9.86;47.35
4024;BME280;2026;51.002;13.668;2023-04-26T15:39:47;99074.09;;;9.58;47.77
4024;BME280;2026;51.002;13.668;2023-04-26T15:44:50;99079.53;;;9.57;48.93
4024;BME280;2026;51.002;13.668;2023-04-26T15:49:53;99085.09;;;9.87;48.74
4024;BME280;2026;51.002;13.668;2023-04-26T15:54:58;99085.78;;;9.29;47.91
4024;BME280;2026;51.002;13.668;2023-04-26T16:00:01;99094.03;;;8.92;49.15
4024;BME280;2026;51.002;13.668;2023-04-26T16:05:08;99086.97;;;9.40;50.28
4024;BME280;2026;51.002;13.668;2023-04-26T16:10:13;99083.38;;;9.14;49.52
4024;BME280;2026;51.002;13.668;2023-04-26T16:15:17;99083.16;;;9.62;49.16
4024;BME280;2026;51.002;13.668;2023-04-26T16:20:20;99086.75;;;9.75;48.92
4024;BME280;2026;51.002;13.668;2023-04-26T16:25:24;99095.38;;;9.82;48.41
4024;BME280;2026;51.002;13.668;2023-04-26T16:30:27;99076.50;;;9.26;48.80
4024;BME280;2026;51.002;13.668;2023-04-26T16:35:30;99083.56;;;9.53;48.01
4024;BME280;2026;51.002;13.668;2023-04-26T16:40:34;99082.75;;;9.12;49.50
4024;BME280;2026;51.002;13.668;2023-04-26T16:45:37;99080.56;;;9.56;49.20
4024;BME280;2026;51.002;13.668;2023-04-26T16:50:41;99083.53;;;9.73;47.69
4024;BME280;2026;51.002;13.668;2023-04-26T16:55:46;99089.31;;;9.88;48.48
4024;BME280;2026;51.002;13.668;2023-04-26T17:00:49;99087.78;;;9.60;48.43
4024;BME280;2026;51.002;13.668;2023-04-26T17:05:52;99086.19;;;9.32;48.92
4024;BME280;2026;51.002;13.668;2023-04-26T17:10:56;99093.22;;;9.39;49.06
4024;BME280;2026;51.002;13.668;2023-04-26T17:15:59;99105.88;;;9.28;50.35
4024;BME280;2026;51.002;13.668;2023-04-26T17:21:03;99102.69;;;9.40;50.94
4024;BME280;2026;51.002;13.668;2023-04-26T17:26:07;99110.75;;;9.45;49.55
4024;BME280;2026;51.002;13.668;2023-04-26T17:31:10;99105.09;;;9.21;51.03
4024;BME280;2026;51.002;13.668;2023-04-26T17:36:13;99116.16;;;9.23;51.77
4024;BME280;2026;51.002;13.668;2023-04-26T17:41:18;99119.97;;;9.27;50.77
4024;BME280;2026;51.002;13.668;2023-04-26T17:46:21;99112.72;;;9.02;49.96
4024;BME280;2026;51.002;13.668;2023-04-26T17:51:24;99131.81;;;8.96;51.44
4024;BME280;2026;51.002;13.668;2023-04-26T17:56:28;99137.47;;;8.86;51.62
4024;BME280;2026;51.002;13.668;2023-04-26T18:01:31;99135.03;;;8.91;52.28
4024;BME280;2026;51.002;13.668;2023-04-26T18:06:34;99131.78;;;8.76;53.15
4024;BME280;2026;51.002;13.668;2023-04-26T18:11:39;99129.22;;;8.82;53.20
4024;BME280;2026;51.002;13.668;2023-04-26T18:16:48;99136.81;;;8.84;53.57
4024;BME280;2026;51.002;13.668;2023-04-26T18:21:53;99145.25;;;8.66;54.14
4024;BME280;2026;51.002;13.668;2023-04-26T18:26:58;99152.91;;;8.74;53.98
4024;BME280;2026;51.002;13.668;2023-04-26T18:32:01;99153.34;;;8.78;55.79
4024;BME280;2026;51.002;13.668;2023-04-26T18:37:04;99146.22;;;8.65;55.50
4024;BME280;2026;51.002;13.668;2023-04-26T18:42:09;99163.91;;;8.63;55.16
4024;BME280;2026;51.002;13.668;2023-04-26T18:47:12;99157.69;;;8.57;54.80
4024;BME280;2026;51.002;13.668;2023-04-26T18:52:15;99162.88;;;8.50;56.06
4024;BME280;2026;51.002;13.668;2023-04-26T18:57:20;99165.38;;;8.30;55.08
4024;BME280;2026;51.002;13.668;2023-04-26T19:02:23;99170.75;;;8.15;56.72
4024;BME280;2026;51.002;13.668;2023-04-26T19:07:26;99175.28;;;8.35;57.23
4024;BME280;2026;51.002;13.668;2023-04-26T19:12:31;99173.09;;;8.45;57.06
4024;BME280;2026;51.002;13.668;2023-04-26T19:17:34;99181.94;;;8.44;58.43
4024;BME280;2026;51.002;13.668;2023-04-26T19:22:38;99180.53;;;8.41;57.26
4024;BME280;2026;51.002;13.668;2023-04-26T19:27:43;99184.72;;;8.36;58.56
4024;BME280;2026;51.002;13.668;2023-04-26T19:32:46;99180.09;;;8.38;61.11
4024;BME280;2026;51.002;13.668;2023-04-26T19:37:49;99178.16;;;8.47;58.42
4024;BME280;2026;51.002;13.668;2023-04-26T19:42:53;99186.78;;;8.47;58.97
4024;BME280;2026;51.002;13.668;2023-04-26T19:47:58;99181.31;;;8.42;58.27
4024;BME280;2026;51.002;13.668;2023-04-26T19:53:01;99190.16;;;8.41;56.75
4024;BME280;2026;51.002;13.668;2023-04-26T19:58:06;99186.09;;;8.32;57.91
4024;BME280;2026;51.002;13.668;2023-04-26T20:03:09;99180.19;;;8.16;58.07
4024;BME280;2026;51.002;13.668;2023-04-26T20:08:12;99190.81;;;8.14;58.13
4024;BME280;2026;51.002;13.668;2023-04-26T20:13:16;99189.22;;;8.13;58.45
4024;BME280;2026;51.002;13.668;2023-04-26T20:18:19;99191.22;;;8.11;58.44
4024;BME280;2026;51.002;13.668;2023-04-26T20:23:23;99187.47;;;7.92;58.00
4024;BME280;2026;51.002;13.668;2023-04-26T20:28:27;99189.63;;;7.82;58.54
4024;BME280;2026;51.002;13.668;2023-04-26T20:33:30;99191.75;;;7.71;59.71
4024;BME280;2026;51.002;13.668;2023-04-26T20:38:33;99181.66;;;7.62;59.62
4024;BME280;2026;51.002;13.668;2023-04-26T20:43:37;99185.38;;;7.52;59.16
4024;BME280;2026;51.002;13.668;2023-04-26T20:48:41;99180.50;;;7.21;61.43
4024;BME280;2026;51.002;13.668;2023-04-26T20:53:43;99169.94;;;7.07;62.88
4024;BME280;2026;51.002;13.668;2023-04-26T20:58:48;99176.41;;;6.96;63.52
4024;BME280;2026;51.002;13.668;2023-04-26T21:03:51;99182.31;;;6.68;64.29
4024;BME280;2026;51.002;13.668;2023-04-26T21:08:54;99189.88;;;6.63;63.61
4024;BME280;2026;51.002;13.668;2023-04-26T21:13:58;99188.81;;;6.27;63.67
4024;BME280;2026;51.002;13.668;2023-04-26T21:19:01;99185.41;;;6.12;63.86
4024;BME280;2026;51.002;13.668;2023-04-26T21:24:05;99193.22;;;6.12;64.60
4024;BME280;2026;51.002;13.668;2023-04-26T21:29:09;99199.38;;;5.80;66.98
4024;BME280;2026;51.002;13.668;2023-04-26T21:34:12;99198.97;;;6.07;65.84
4024;BME280;2026;51.002;13.668;2023-04-26T21:39:15;99202.09;;;6.17;65.66
4024;BME280;2026;51.002;13.668;2023-04-26T21:44:20;99205.34;;;6.04;66.41
4024;BME280;2026;51.002;13.668;2023-04-26T21:49:23;99218.72;;;6.01;66.27
4024;BME280;2026;51.002;13.668;2023-04-26T21:54:26;99209.34;;;5.92;67.28
4024;BME280;2026;51.002;13.668;2023-04-26T21:59:31;99221.81;;;5.82;67.87
4024;BME280;2026;51.002;13.668;2023-04-26T22:04:33;99221.31;;;5.63;68.13
4024;BME280;2026;51.002;13.668;2023-04-26T22:09:37;99229.50;;;5.51;68.71
4024;BME280;2026;51.002;13.668;2023-04-26T22:14:41;99228.88;;;5.49;68.84
4024;BME280;2026;51.002;13.668;2023-04-26T22:19:44;99225.41;;;5.34;69.65
4024;BME280;2026;51.002;13.668;2023-04-26T22:24:47;99237.84;;;5.23;69.75
4024;BME280;2026;51.002;13.668;2023-04-26T22:29:51;99237.22;;;5.13;70.42
4024;BME280;2026;51.002;13.668;2023-04-26T22:34:54;99244.66;;;4.93;71.05
4024;BME280;2026;51.002;13.668;2023-04-26T22:39:57;99243.50;;;4.95;70.95
4024;BME280;2026;51.002;13.668;2023-04-26T22:45:01;99243.75;;;4.77;72.04
4024;BME280;2026;51.002;13.668;2023-04-26T22:50:05;99258.38;;;4.70;72.38
4024;BME280;2026;51.002;13.668;2023-04-26T23:01:21;99246.38;;;3.79;77.28
4024;BME280;2026;51.002;13.668;2023-04-26T23:06:24;99249.44;;;4.24;76.22
4024;BME280;2026;51.002;13.668;2023-04-26T23:11:37;99255.56;;;4.32;75.51
4024;BME280;2026;51.002;13.668;2023-04-26T23:16:48;99250.06;;;4.26;75.68
4024;BME280;2026;51.002;13.668;2023-04-26T23:21:51;99253.50;;;4.10;76.91
4024;BME280;2026;51.002;13.668;2023-04-26T23:26:54;99256.75;;;4.21;76.12
4024;BME280;2026;51.002;13.668;2023-04-26T23:31:58;99253.34;;;4.12;76.43
4024;BME280;2026;51.002;13.668;2023-04-26T23:37:01;99255.13;;;4.03;76.60
4024;BME280;2026;51.002;13.668;2023-04-26T23:42:08;99265.50;;;3.86;77.51
4024;BME280;2026;51.002;13.668;2023-04-26T23:47:12;99258.06;;;3.83;76.67
4024;BME280;2026;51.002;13.668;2023-04-26T23:52:15;99253.19;;;3.72;78.09
4024;BME280;2026;51.002;13.668;2023-04-26T23:57:18;99248.50;;;3.67;77.92
